Terminal Aerodrome Forecast
Issued by NWS

Home | Current Version | Previous Version | Text Only | Print | Product List | Glossary On
Versions: 1 2 3 4 5 6 7 8 9 10 11 12 13
000
FTUS45 KTFX 181100
TAFHLN
TAF
KHLN 181134Z 1812/1912 VRB06KT P6SM VCSH SCT090 BKN150
     FM181800 VRB06KT P6SM SCT070 BKN120
      TEMPO 1818/1820 VRB15G35KT P6SM -TSRA BKN050CB
     FM182000 26010KT P6SM SCT090 BKN150=

USA.gov is the U.S. government's official web portal to all federal, state and local government web resources and services.